Time;durP1;ratioP1;P1;durP2;ratioP2;P2;SDS_P1;SDS_P2;PMS_P1;PMS_P2;Temp;Humidity;BMP_temperature;BMP_pressure;BME280_temperature;BME280_humidity;BME280_pressure;Samples;Min_cycle;Max_cycle;Signal;HPM_P1;HPM_P2
2022/04/28 00:00:45;;;;;;;7.55;3.20;;;;;;;7.32;58.25;101604.50;4993242;28;20054;-44
2022/04/28 00:03:12;;;;;;;11.30;3.78;;;;;;;7.32;58.88;101609.66;4988233;28;20053;-42
2022/04/28 00:05:39;;;;;;;10.30;3.13;;;;;;;7.32;57.57;101604.50;4990692;28;20068;-43
2022/04/28 00:08:08;;;;;;;8.30;3.08;;;;;;;7.31;58.86;101610.50;4990285;28;20387;-42
2022/04/28 00:10:36;;;;;;;5.05;2.78;;;;;;;7.30;58.18;101614.75;4987995;28;20157;-46
2022/04/28 00:13:04;;;;;;;7.95;3.13;;;;;;;7.30;58.44;101626.78;4990434;28;20509;-42
2022/04/28 00:15:30;;;;;;;8.95;3.42;;;;;;;7.29;58.67;101625.00;4998066;28;20046;-40
2022/04/28 00:17:58;;;;;;;8.45;3.47;;;;;;;7.32;57.56;101627.72;4992550;28;20050;-45
2022/04/28 00:20:27;;;;;;;9.55;3.47;;;;;;;7.35;58.30;101634.66;4989355;28;20054;-41
2022/04/28 00:22:55;;;;;;;10.02;2.78;;;;;;;7.34;58.31;101631.22;4986625;28;20132;-42
2022/04/28 00:25:23;;;;;;;8.02;3.22;;;;;;;7.34;58.14;101628.66;4985255;28;20483;-42
2022/04/28 00:27:53;;;;;;;7.88;3.10;;;;;;;7.36;57.65;101637.31;4981095;28;20193;-39
2022/04/28 00:30:22;;;;;;;5.55;3.45;;;;;;;7.37;57.28;101639.09;4993816;28;20082;-43
2022/04/28 00:32:50;;;;;;;10.55;4.47;;;;;;;7.40;57.65;101640.88;4988698;28;20042;-44
2022/04/28 00:35:34;;;;;;;6.78;3.28;;;;;;;7.41;58.99;101640.94;4991789;28;20057;-42
2022/04/28 00:38:02;;;;;;;6.55;2.78;;;;;;;7.40;58.61;101644.31;4994463;28;20129;-40
2022/04/28 00:40:28;;;;;;;9.80;2.92;;;;;;;7.40;58.46;101643.47;4994324;28;20081;-43
2022/04/28 00:43:18;;;;;;;5.28;3.05;;;;;;;7.40;58.89;101644.31;4992502;28;20045;-42
2022/04/28 00:45:41;;;;;;;6.63;2.95;;;;;;;7.42;58.71;101640.13;4991564;28;20046;-41
2022/04/28 00:50:57;;;;;;;8.10;2.15;;;;;;;7.41;57.69;101638.38;4986691;28;20437;-39
2022/04/28 00:53:26;;;;;;;8.65;2.78;;;;;;;7.41;58.61;101630.63;4993464;28;20054;-42
2022/04/28 00:55:53;;;;;;;8.45;3.25;;;;;;;7.40;57.60;101626.28;4987349;28;20552;-45
2022/04/28 00:58:20;;;;;;;8.10;2.85;;;;;;;7.39;58.07;101621.94;4992950;28;20042;-40
2022/04/28 01:00:47;;;;;;;9.73;3.47;;;;;;;7.40;59.11;101615.97;4997807;28;20049;-43
2022/04/28 01:03:16;;;;;;;11.07;3.08;;;;;;;7.41;58.71;101619.44;4983039;28;20069;-40
2022/04/28 01:05:43;;;;;;;5.32;2.78;;;;;;;7.40;57.64;101621.13;4987296;28;20125;-43
2022/04/28 01:08:10;;;;;;;9.48;3.85;;;;;;;7.41;59.27;101620.31;4989655;28;20500;-43
2022/04/28 01:10:36;;;;;;;12.18;3.35;;;;;;;7.40;58.87;101623.69;4985392;28;20140;-42
2022/04/28 01:13:04;;;;;;;8.82;3.65;;;;;;;7.41;58.40;101624.59;4992595;28;20569;-41
2022/04/28 01:15:43;;;;;;;8.82;3.08;;;;;;;7.36;58.98;101616.69;4995901;28;20093;-46
2022/04/28 01:18:09;;;;;;;8.15;3.50;;;;;;;7.39;59.50;101621.06;4985511;28;20050;-44
2022/04/28 01:20:36;;;;;;;5.97;3.72;;;;;;;7.38;59.68;101632.22;4989878;28;20050;-40
2022/04/28 01:23:04;;;;;;;9.32;3.38;;;;;;;7.35;58.93;101630.41;4993711;28;20051;-46
2022/04/28 01:25:31;;;;;;;5.00;3.10;;;;;;;7.33;59.20;101632.91;4991500;28;20054;-43
2022/04/28 01:27:58;;;;;;;9.18;2.90;;;;;;;7.35;59.14;101635.56;4990691;28;20054;-43
2022/04/28 01:30:25;;;;;;;6.35;3.03;;;;;;;7.36;59.18;101639.03;4997102;28;20058;-40
2022/04/28 01:32:57;;;;;;;5.53;3.47;;;;;;;7.36;59.44;101636.44;5001769;28;20054;-43
2022/04/28 01:35:24;;;;;;;9.30;3.25;;;;;;;7.37;59.42;101639.09;4981818;28;20054;-41
2022/04/28 01:37:52;;;;;;;7.38;3.15;;;;;;;7.36;58.20;101636.44;4989333;28;20042;-41
2022/04/28 01:40:20;;;;;;;6.70;2.88;;;;;;;7.36;59.86;101628.72;4989859;28;20105;-42
2022/04/28 01:42:47;;;;;;;7.22;3.03;;;;;;;7.35;58.81;101629.50;4990049;28;20111;-40
2022/04/28 01:45:15;;;;;;;8.52;3.25;;;;;;;7.33;59.01;101632.06;4990615;28;20045;-43
2022/04/28 01:47:41;;;;;;;6.43;3.13;;;;;;;7.33;58.23;101637.22;4991552;28;20449;-41
2022/04/28 01:50:11;;;;;;;7.63;2.88;;;;;;;7.34;59.32;101628.66;4993035;28;20559;-43
2022/04/28 01:55:25;;;;;;;4.78;2.63;;;;;;;7.36;58.66;101642.47;4982068;28;20045;-42
2022/04/28 01:57:52;;;;;;;5.95;2.97;;;;;;;7.39;58.78;101632.25;4994060;28;20092;-45
2022/04/28 02:00:18;;;;;;;7.95;2.78;;;;;;;7.41;58.58;101628.06;4991620;28;20050;-43
2022/04/28 02:02:48;;;;;;;10.32;2.95;;;;;;;7.40;58.18;101639.16;4989475;28;20565;-44
2022/04/28 02:05:15;;;;;;;5.95;3.33;;;;;;;7.40;59.09;101634.00;4991185;28;20101;-40
2022/04/28 02:07:42;;;;;;;7.43;1.65;;;;;;;7.39;58.87;101633.94;4996570;28;20569;-40
2022/04/28 02:10:09;;;;;;;6.47;3.55;;;;;;;7.38;59.15;101635.69;4995204;28;20049;-42
2022/04/28 02:12:35;;;;;;;5.93;3.65;;;;;;;7.37;59.12;101643.34;4990237;28;20114;-41
2022/04/28 02:15:03;;;;;;;7.68;3.22;;;;;;;7.37;60.10;101640.78;4998495;28;20054;-42
2022/04/28 02:17:35;;;;;;;8.00;3.40;;;;;;;7.37;58.70;101633.94;4995305;28;20540;-43
2022/04/28 02:20:03;;;;;;;9.52;3.40;;;;;;;7.38;58.51;101630.53;4988051;28;20057;-44
2022/04/28 02:22:31;;;;;;;6.55;3.63;;;;;;;7.40;59.87;101628.84;5001323;28;20096;-43
2022/04/28 02:24:58;;;;;;;6.78;2.60;;;;;;;7.41;59.57;101624.59;4990400;28;20196;-39
2022/04/28 02:27:24;;;;;;;9.43;3.35;;;;;;;7.41;59.47;101625.47;4993205;28;20055;-42
2022/04/28 02:29:51;;;;;;;6.55;2.78;;;;;;;7.42;59.46;101627.22;4997735;28;20494;-44
2022/04/28 02:32:18;;;;;;;6.95;2.90;;;;;;;7.42;58.16;101632.38;5000345;28;20054;-45
2022/04/28 02:34:44;;;;;;;12.25;3.72;;;;;;;7.40;59.23;101633.16;4992495;28;20050;-41
2022/04/28 02:37:11;;;;;;;12.52;3.35;;;;;;;7.40;58.85;101644.31;4991574;28;20046;-46
2022/04/28 02:39:38;;;;;;;5.05;2.80;;;;;;;7.41;58.40;101638.38;4998021;28;20116;-40
2022/04/28 02:42:22;;;;;;;7.35;3.28;;;;;;;7.41;58.42;101635.78;4992484;28;20241;-43
2022/04/28 02:44:48;;;;;;;8.50;4.18;;;;;;;7.41;59.11;101638.38;4992313;28;20054;-43
2022/04/28 02:47:15;;;;;;;4.25;3.10;;;;;;;7.40;59.70;101634.00;4996102;28;20103;-46
2022/04/28 02:49:42;;;;;;;9.35;3.40;;;;;;;7.41;59.39;101640.94;4988621;28;20050;-39
2022/04/28 02:52:08;;;;;;;5.10;2.90;;;;;;;7.41;60.05;101634.91;4993480;28;20084;-45
2022/04/28 02:54:36;;;;;;;9.70;3.60;;;;;;;7.41;58.31;101629.75;4995558;28;20054;-44
2022/04/28 02:57:03;;;;;;;5.28;2.90;;;;;;;7.40;58.56;101639.16;4988211;28;20065;-43
2022/04/28 02:59:30;;;;;;;6.85;3.60;;;;;;;7.42;59.85;101637.53;4996183;28;20054;-43
2022/04/28 03:01:56;;;;;;;6.15;2.88;;;;;;;7.40;59.41;101634.00;4990030;28;20062;-41
2022/04/28 03:04:25;;;;;;;5.57;3.30;;;;;;;7.39;58.63;101642.56;4994869;28;20058;-43
2022/04/28 03:12:25;;;;;;;5.53;3.38;;;;;;;7.37;60.11;101628.78;4997789;28;20064;-43
2022/04/28 03:14:51;;;;;;;4.30;1.58;;;;;;;7.37;59.29;101628.78;4989833;28;20462;-41
2022/04/28 03:17:18;;;;;;;7.15;3.30;;;;;;;7.36;60.33;101615.81;4994499;28;20042;-42
2022/04/28 03:19:45;;;;;;;7.88;2.88;;;;;;;7.34;58.76;101636.38;4992361;28;20483;-45
2022/04/28 03:22:11;;;;;;;9.68;3.35;;;;;;;7.34;59.92;101633.81;4990922;28;20108;-44
2022/04/28 03:24:39;;;;;;;8.38;3.28;;;;;;;7.34;59.64;101633.81;4994600;28;20096;-40
2022/04/28 03:27:06;;;;;;;8.82;3.35;;;;;;;7.32;60.40;101625.13;4991269;28;20553;-40
2022/04/28 03:29:33;;;;;;;8.13;3.03;;;;;;;7.32;58.93;101625.13;4987597;28;20054;-41
2022/04/28 03:31:59;;;;;;;6.00;3.55;;;;;;;7.30;60.60;101625.06;4994178;28;20108;-42
2022/04/28 03:34:26;;;;;;;5.75;3.53;;;;;;;7.29;60.39;101632.75;4990354;28;20049;-42
2022/04/28 03:36:52;;;;;;;6.65;2.92;;;;;;;7.29;59.97;101630.16;4990397;28;20545;-43
2022/04/28 03:39:20;;;;;;;8.38;3.30;;;;;;;7.28;60.02;101625.84;4989207;28;20045;-45
2022/04/28 03:41:46;;;;;;;9.30;2.97;;;;;;;7.24;59.38;101623.97;4989476;28;20050;-43
2022/04/28 03:44:13;;;;;;;7.78;3.20;;;;;;;7.25;60.10;101628.31;4991395;28;20054;-45
2022/04/28 03:46:40;;;;;;;7.05;3.13;;;;;;;7.22;59.81;101633.38;4996466;28;20116;-42
2022/04/28 03:49:06;;;;;;;8.23;3.13;;;;;;;7.19;59.63;101629.84;4992613;28;20108;-41
2022/04/28 03:51:33;;;;;;;7.70;3.45;;;;;;;7.18;59.77;101625.53;4994288;28;20077;-42
2022/04/28 03:54:01;;;;;;;7.28;3.17;;;;;;;7.15;59.97;101622.81;4996588;28;20057;-42
2022/04/28 03:56:31;;;;;;;5.80;2.88;;;;;;;7.14;61.03;101633.97;4997499;28;20066;-42
2022/04/28 03:58:59;;;;;;;6.82;3.00;;;;;;;7.13;60.81;101634.75;4991053;28;20081;-44
2022/04/28 04:01:26;;;;;;;11.30;3.90;;;;;;;7.10;60.97;101634.66;4988265;28;20042;-41
2022/04/28 04:03:53;;;;;;;7.47;3.38;;;;;;;7.10;60.75;101644.09;4990994;28;20062;-42
2022/04/28 04:06:20;;;;;;;5.38;2.60;;;;;;;7.08;59.50;101641.44;4993736;28;20053;-40
2022/04/28 04:08:46;;;;;;;5.20;2.63;;;;;;;7.07;60.82;101645.72;4991761;28;20049;-41
2022/04/28 04:11:13;;;;;;;5.88;3.83;;;;;;;7.07;59.44;101644.84;4997638;28;20461;-41
2022/04/28 04:13:40;;;;;;;6.90;3.65;;;;;;;7.07;60.28;101643.13;4983461;28;20054;-43
2022/04/28 04:16:06;;;;;;;9.02;3.30;;;;;;;7.06;60.80;101646.53;4984538;28;20058;-43
2022/04/28 04:18:33;;;;;;;6.97;3.60;;;;;;;7.07;59.83;101652.59;4985640;28;20042;-45
2022/04/28 04:21:00;;;;;;;4.70;3.00;;;;;;;7.07;60.25;101648.28;4987674;28;20054;-44
2022/04/28 04:23:26;;;;;;;7.85;3.30;;;;;;;7.07;59.65;101647.44;4989730;28;20096;-41
2022/04/28 04:25:53;;;;;;;6.32;3.28;;;;;;;7.07;60.30;101655.16;4992818;28;20101;-44
2022/04/28 04:28:19;;;;;;;7.90;3.10;;;;;;;7.07;61.24;101650.00;4994591;28;20042;-44
2022/04/28 04:33:33;;;;;;;8.32;3.88;;;;;;;7.02;61.63;101652.41;4986391;28;20045;-49
2022/04/28 04:35:59;;;;;;;10.32;3.15;;;;;;;7.02;61.17;101651.50;4998052;28;20050;-45
2022/04/28 04:38:26;;;;;;;6.55;3.25;;;;;;;7.01;60.19;101655.81;4986300;28;20050;-43
2022/04/28 04:40:53;;;;;;;6.25;3.30;;;;;;;6.99;60.98;101657.44;4992349;28;20096;-41
2022/04/28 04:43:19;;;;;;;7.35;3.55;;;;;;;7.00;61.47;101650.59;4991800;28;20049;-43
2022/04/28 04:45:46;;;;;;;11.88;3.75;;;;;;;7.00;61.73;101653.16;4988097;28;20568;-40
2022/04/28 04:48:13;;;;;;;8.68;3.53;;;;;;;7.00;61.32;101653.16;4991258;28;20073;-42
2022/04/28 04:50:40;;;;;;;9.07;3.70;;;;;;;6.98;61.10;101650.53;4995624;28;20758;-41
2022/04/28 04:53:07;;;;;;;11.45;3.72;;;;;;;6.97;61.48;101653.03;4994097;28;20053;-40
2022/04/28 04:55:34;;;;;;;9.27;3.25;;;;;;;6.96;61.02;101656.44;4978226;28;20553;-41
2022/04/28 04:58:01;;;;;;;8.32;3.97;;;;;;;6.98;61.67;101654.78;4993560;28;20104;-41
2022/04/28 05:00:27;;;;;;;5.65;3.08;;;;;;;6.98;61.01;101657.38;5001156;28;20100;-42
2022/04/28 05:02:54;;;;;;;8.40;2.20;;;;;;;6.98;62.74;101667.69;4998631;28;20616;-40
2022/04/28 05:05:21;;;;;;;7.90;3.72;;;;;;;6.99;61.60;101661.72;4991392;28;20791;-41
2022/04/28 05:07:47;;;;;;;11.02;3.75;;;;;;;6.99;61.80;101666.88;4994949;28;20054;-42
2022/04/28 05:10:14;;;;;;;11.55;4.10;;;;;;;7.01;61.42;101671.25;4990790;28;21028;-41
2022/04/28 05:12:41;;;;;;;10.85;3.92;;;;;;;7.02;62.88;101673.00;4982961;28;20117;-39
2022/04/28 05:15:08;;;;;;;7.75;3.47;;;;;;;7.04;61.24;101670.50;4985241;28;20534;-41
2022/04/28 05:17:35;;;;;;;9.60;3.22;;;;;;;7.03;61.84;101674.75;4993558;28;20045;-44
2022/04/28 05:20:04;;;;;;;13.10;4.43;;;;;;;7.04;61.79;101675.66;4991269;28;20058;-43
2022/04/28 05:22:30;;;;;;;11.05;3.55;;;;;;;7.04;63.07;101673.06;4991400;28;20100;-46
2022/04/28 05:24:57;;;;;;;8.27;4.35;;;;;;;7.05;63.38;101677.41;4984039;28;20055;-41
2022/04/28 05:27:24;;;;;;;10.00;4.22;;;;;;;7.09;62.48;101679.28;4988340;28;20093;-43
2022/04/28 05:29:51;;;;;;;9.35;4.13;;;;;;;7.08;63.13;101680.09;4992171;28;20072;-41
2022/04/28 05:32:18;;;;;;;11.68;4.20;;;;;;;7.10;62.06;101680.16;4993399;28;20108;-43
2022/04/28 05:34:44;;;;;;;7.43;3.85;;;;;;;7.10;62.09;101686.22;4986270;28;20054;-41
2022/04/28 05:37:13;;;;;;;9.02;3.75;;;;;;;7.12;62.63;101689.69;4990161;28;20053;-41
2022/04/28 05:39:41;;;;;;;12.63;3.85;;;;;;;7.12;63.21;101684.53;4989143;28;20104;-45
2022/04/28 05:42:08;;;;;;;6.20;3.30;;;;;;;7.14;63.20;101692.34;4984699;28;20069;-43
2022/04/28 05:47:24;;;;;;;7.03;3.15;;;;;;;7.18;62.67;101687.38;4989708;28;22997;-44
2022/04/28 05:49:51;;;;;;;6.65;3.47;;;;;;;7.22;63.66;101684.91;5001611;28;20046;-45
2022/04/28 05:52:18;;;;;;;6.22;3.90;;;;;;;7.16;62.66;101681.25;4991981;28;20051;-38
2022/04/28 05:54:45;;;;;;;6.53;3.17;;;;;;;7.22;63.75;101695.22;4994004;28;20054;-40
2022/04/28 05:57:11;;;;;;;6.72;3.17;;;;;;;7.23;63.34;101694.41;4994422;28;20112;-40
2022/04/28 05:59:39;;;;;;;5.60;3.13;;;;;;;7.25;62.29;101701.34;4993912;28;20054;-41
2022/04/28 06:02:06;;;;;;;7.20;3.60;;;;;;;7.25;63.26;101703.03;4994476;28;20050;-42
2022/04/28 06:04:33;;;;;;;7.88;3.95;;;;;;;7.28;63.73;101703.16;4996818;28;20050;-41
2022/04/28 06:07:00;;;;;;;8.07;4.05;;;;;;;7.32;63.63;101697.31;5001077;28;20150;-41
2022/04/28 06:09:27;;;;;;;6.07;3.85;;;;;;;7.35;63.20;101692.25;4989708;28;20049;-43
2022/04/28 06:11:53;;;;;;;7.80;3.22;;;;;;;7.39;63.28;101694.13;4998573;28;20042;-43
2022/04/28 06:14:20;;;;;;;8.80;3.17;;;;;;;7.40;63.90;101690.72;4994987;28;20113;-43
2022/04/28 06:16:47;;;;;;;7.50;3.70;;;;;;;7.46;62.45;101693.53;4997140;28;20112;-45
2022/04/28 06:19:13;;;;;;;5.97;3.15;;;;;;;7.52;63.74;101702.31;4998791;28;20096;-43
2022/04/28 06:21:40;;;;;;;11.65;4.00;;;;;;;7.53;62.12;101701.50;4992750;28;20050;-41
2022/04/28 06:24:10;;;;;;;;;;;;;;;7.51;64.26;101703.16;4997019;28;20058;-41
2022/04/28 06:26:37;;;;;;;6.85;3.10;;;;;;;7.61;62.39;101699.19;4991856;28;19926;-44
2022/04/28 06:29:20;;;;;;;8.02;3.97;;;;;;;7.69;63.17;101711.56;4992417;28;20116;-43
2022/04/28 06:31:47;;;;;;;8.07;3.58;;;;;;;7.75;61.93;101713.47;4987091;28;20054;-41
2022/04/28 06:34:14;;;;;;;7.40;3.22;;;;;;;7.81;61.74;101728.28;4993975;28;20053;-42
2022/04/28 06:36:40;;;;;;;10.43;4.03;;;;;;;7.87;61.92;101728.50;4991050;28;20065;-41
2022/04/28 06:39:07;;;;;;;6.63;3.40;;;;;;;7.91;62.09;101729.50;4989284;28;20062;-44
2022/04/28 06:41:34;;;;;;;11.00;3.70;;;;;;;7.93;61.93;101730.41;4990454;28;20050;-44
2022/04/28 06:44:01;;;;;;;7.53;2.00;;;;;;;7.96;62.51;101731.41;4990549;28;20430;-44
2022/04/28 06:46:28;;;;;;;6.97;2.28;;;;;;;7.95;61.57;101727.09;4991886;28;20447;-43
2022/04/28 06:48:54;;;;;;;9.77;4.43;;;;;;;7.95;61.84;101727.09;4990741;28;20049;-44
2022/04/28 06:51:21;;;;;;;9.35;2.17;;;;;;;7.98;62.76;101732.34;4991993;28;20804;-42
2022/04/28 06:53:48;;;;;;;11.45;4.00;;;;;;;8.02;61.42;101722.13;4986141;28;20082;-44
2022/04/28 06:56:16;;;;;;;4.53;3.35;;;;;;;8.02;61.88;101725.59;4987419;28;20102;-41
2022/04/28 06:58:43;;;;;;;7.38;3.53;;;;;;;8.05;62.36;101722.25;4992932;28;20069;-42
2022/04/28 07:01:10;;;;;;;7.50;3.35;;;;;;;8.07;62.73;101731.78;4992064;28;20054;-40
2022/04/28 07:03:40;;;;;;;10.25;3.42;;;;;;;8.12;61.78;101723.31;4989317;28;20054;-39
2022/04/28 07:06:06;;;;;;;;;;;;;;;8.09;62.17;101725.00;4984683;28;20112;-43
2022/04/28 07:08:33;;;;;;;6.35;3.30;;;;;;;8.23;62.42;101712.56;4984652;28;19921;-41
2022/04/28 07:11:00;;;;;;;5.55;3.50;;;;;;;8.30;61.42;101723.06;4986094;28;21031;-42
2022/04/28 07:13:26;;;;;;;8.80;3.35;;;;;;;8.40;61.42;101725.13;4989441;28;20104;-43
2022/04/28 07:15:53;;;;;;;5.57;3.50;;;;;;;8.48;61.41;101728.84;4984885;28;20057;-41
2022/04/28 07:18:20;;;;;;;10.07;3.60;;;;;;;8.58;62.06;101724.03;4990658;28;20096;-40
2022/04/28 07:20:46;;;;;;;7.38;3.67;;;;;;;8.67;62.13;101728.59;4990708;28;20054;-45
2022/04/28 07:23:15;;;;;;;8.02;3.45;;;;;;;8.73;60.98;101737.44;4989601;28;20054;-43
2022/04/28 07:25:42;;;;;;;5.90;3.40;;;;;;;8.77;61.54;101742.69;4990039;28;20133;-41
2022/04/28 07:28:08;;;;;;;8.57;3.47;;;;;;;8.76;61.74;101738.34;4989180;28;20049;-41
2022/04/28 07:30:35;;;;;;;7.03;3.78;;;;;;;8.80;61.35;101732.47;4989765;28;20473;-43
2022/04/28 07:33:03;;;;;;;8.65;4.78;;;;;;;8.85;61.10;101743.84;4985086;28;20050;-44
2022/04/28 07:35:30;;;;;;;7.25;3.58;;;;;;;8.91;61.59;101753.50;4992841;28;20096;-41
2022/04/28 07:37:56;;;;;;;8.23;3.13;;;;;;;8.89;61.45;101761.19;4992897;28;20050;-38
2022/04/28 07:40:25;;;;;;;9.00;4.15;;;;;;;8.90;60.65;101757.78;4988223;28;20042;-39
2022/04/28 07:42:53;;;;;;;5.22;3.55;;;;;;;8.92;61.25;101774.19;5000363;28;20046;-44
2022/04/28 07:45:19;;;;;;;7.68;3.50;;;;;;;8.96;60.69;101778.66;4995104;28;20042;-43
2022/04/28 07:47:46;;;;;;;11.02;3.78;;;;;;;9.03;60.24;101771.97;4988108;28;20058;-43
2022/04/28 07:50:13;;;;;;;11.90;4.30;;;;;;;9.04;60.84;101772.81;4997427;28;20503;-47
2022/04/28 07:52:40;;;;;;;6.13;3.30;;;;;;;9.06;60.16;101778.94;4996718;28;20050;-44
2022/04/28 07:55:07;;;;;;;11.20;2.92;;;;;;;9.10;60.43;101783.38;4989625;28;20050;-43
2022/04/28 07:57:34;;;;;;;8.82;3.83;;;;;;;9.11;59.99;101782.53;4991518;28;20476;-44
2022/04/28 08:00:02;;;;;;;11.82;3.55;;;;;;;9.11;60.32;101782.53;4996167;28;20506;-43
2022/04/28 08:02:29;;;;;;;7.57;3.28;;;;;;;9.16;59.92;101783.56;4994072;28;20145;-48
2022/04/28 08:04:56;;;;;;;7.35;2.22;;;;;;;9.19;59.20;101782.78;4997447;28;20419;-45
2022/04/28 08:07:22;;;;;;;6.25;4.32;;;;;;;9.21;59.46;101784.56;4993619;28;20109;-44
2022/04/28 08:09:49;;;;;;;6.40;3.58;;;;;;;9.20;59.60;101772.50;4999452;28;20046;-41
2022/04/28 08:12:16;;;;;;;6.95;2.95;;;;;;;9.23;59.70;101767.38;4994757;28;20049;-44
2022/04/28 08:15:03;;;;;;;12.27;4.13;;;;;;;9.25;59.59;101765.75;4982648;28;21337;-43
2022/04/28 08:17:30;;;;;;;7.43;3.75;;;;;;;9.29;59.62;101771.88;4982520;28;20241;-44
2022/04/28 08:19:56;;;;;;;5.70;3.88;;;;;;;9.31;59.15;101774.50;4984360;28;20058;-44
2022/04/28 08:22:24;;;;;;;4.25;2.88;;;;;;;9.32;59.37;101776.28;4992488;28;20145;-42
2022/04/28 08:24:51;;;;;;;8.18;4.03;;;;;;;9.36;59.56;101783.31;4986837;28;20058;-43
2022/04/28 08:27:17;;;;;;;11.68;3.33;;;;;;;9.41;58.79;101786.00;4996475;28;20322;-45
2022/04/28 08:29:44;;;;;;;9.65;4.05;;;;;;;9.38;58.47;101786.78;4996052;28;20050;-41
2022/04/28 08:32:12;;;;;;;10.43;3.97;;;;;;;9.35;58.51;101789.28;4990719;28;20107;-42
2022/04/28 08:34:39;;;;;;;6.25;3.38;;;;;;;9.35;58.65;101804.78;4990190;28;20245;-49
2022/04/28 08:37:06;;;;;;;5.90;3.80;;;;;;;9.33;58.45;101803.88;4990694;28;20346;-42
2022/04/28 08:39:33;;;;;;;5.95;3.33;;;;;;;9.33;58.04;101803.88;4994152;28;20094;-42
2022/04/28 08:42:00;;;;;;;6.68;4.07;;;;;;;9.35;58.51;101802.22;4995987;28;20096;-45
2022/04/28 08:44:28;;;;;;;8.27;4.13;;;;;;;9.40;58.82;101811.00;4993844;28;20076;-41
2022/04/28 08:46:56;;;;;;;5.20;3.67;;;;;;;9.39;58.01;101804.94;4992825;28;20181;-41
2022/04/28 08:49:26;;;;;;;8.48;3.95;;;;;;;9.42;58.07;101811.91;5001484;28;20065;-50
2022/04/28 08:51:55;;;;;;;7.85;3.92;;;;;;;9.45;58.32;101814.59;4996052;28;20395;-42
2022/04/28 08:54:25;;;;;;;4.88;3.55;;;;;;;9.50;58.09;101807.84;4986401;28;20054;-40
2022/04/28 08:56:53;;;;;;;6.35;3.55;;;;;;;9.51;58.10;101804.44;4994509;28;20054;-40
2022/04/28 08:59:21;;;;;;;5.82;3.05;;;;;;;9.51;57.38;101809.63;4996246;28;20047;-43
2022/04/28 09:01:48;;;;;;;7.38;3.55;;;;;;;9.51;57.79;101814.78;4984603;28;20097;-56
2022/04/28 09:04:15;;;;;;;10.63;3.88;;;;;;;9.54;57.48;101821.78;4986999;28;20130;-54
2022/04/28 09:06:42;;;;;;;8.75;3.63;;;;;;;9.60;57.62;101819.34;4990127;28;20564;-45
2022/04/28 09:09:12;;;;;;;6.10;3.72;;;;;;;9.60;57.39;101818.50;4994183;28;20055;-54
2022/04/28 09:11:41;;;;;;;6.15;3.53;;;;;;;9.62;57.43;101806.47;4990813;28;20401;-52
2022/04/28 09:14:11;;;;;;;9.50;4.03;;;;;;;9.70;57.48;101812.75;4986615;28;20058;-42
2022/04/28 09:21:55;;;;;;;8.40;2.67;;;;;;;9.85;56.92;101809.72;5016947;28;20411;-42
2022/04/28 09:24:25;;;;;;;4.95;2.17;;;;;;;9.91;56.37;101819.38;4994139;28;20054;-39
2022/04/28 09:26:55;;;;;;;6.80;2.67;;;;;;;9.82;55.62;101808.75;4995451;28;20140;-41
2022/04/28 09:29:41;;;;;;;8.88;2.67;;;;;;;9.72;56.27;101818.84;4998736;28;20528;-47
2022/04/28 09:32:11;;;;;;;4.75;1.85;;;;;;;9.63;55.94;101813.41;5005397;28;20046;-44
2022/04/28 09:35:06;;;;;;;5.38;3.00;;;;;;;9.60;56.49;101819.34;4995303;28;20150;-41
2022/04/28 09:37:35;;;;;;;9.32;2.40;;;;;;;9.63;56.63;101813.41;4996123;28;20802;-48
2022/04/28 09:42:52;;;;;;;;;;;;;;;9.46;56.50;101806.00;4994581;28;20052;-42
2022/04/28 09:45:25;;;;;;;6.47;1.67;;;;;;;9.49;56.71;101806.09;4995412;28;19922;-41
2022/04/28 09:48:07;;;;;;;7.57;2.60;;;;;;;9.46;56.76;101816.34;4995771;28;20141;-41
2022/04/28 09:50:39;;;;;;;6.70;2.55;;;;;;;9.52;56.73;101813.97;4980604;28;20088;-47
2022/04/28 09:53:08;;;;;;;7.05;2.45;;;;;;;9.59;56.58;101806.41;4992792;28;20131;-41
2022/04/28 09:55:36;;;;;;;5.18;3.28;;;;;;;9.68;56.23;101806.66;4995237;28;20050;-42
2022/04/28 09:58:06;;;;;;;4.63;2.30;;;;;;;9.75;56.57;101807.69;4990282;28;20049;-43
2022/04/28 10:00:33;;;;;;;7.60;2.67;;;;;;;9.80;55.86;101810.44;4991649;28;20042;-43
2022/04/28 10:03:02;;;;;;;6.78;2.58;;;;;;;9.82;55.82;101804.47;4997057;28;20042;-42
2022/04/28 10:05:31;;;;;;;6.82;2.60;;;;;;;9.93;55.94;101809.94;4994897;28;20054;-42
2022/04/28 10:07:59;;;;;;;6.35;2.08;;;;;;;9.94;54.92;101809.13;4996080;28;20061;-45
2022/04/28 10:10:26;;;;;;;7.57;2.20;;;;;;;9.96;55.83;101811.75;4994741;28;20039;-45
2022/04/28 10:12:55;;;;;;;7.78;2.20;;;;;;;9.99;55.60;101817.00;4992656;28;20054;-41
2022/04/28 10:15:22;;;;;;;6.90;2.70;;;;;;;10.05;55.55;101822.34;4996886;28;20530;-42
2022/04/28 10:17:55;;;;;;;3.83;2.03;;;;;;;10.02;55.34;101815.38;4994900;28;20046;-40
2022/04/28 10:20:33;;;;;;;7.35;2.75;;;;;;;9.96;54.78;101817.78;4997269;28;20037;-41
2022/04/28 10:32:22;;;;;;;6.47;2.35;;;;;;;9.97;55.38;101811.78;4994838;28;20050;-42
2022/04/28 10:35:01;;;;;;;10.15;2.53;;;;;;;10.08;54.54;101816.38;4985920;28;20058;-44
2022/04/28 10:37:32;;;;;;;8.52;2.47;;;;;;;10.13;55.26;101814.78;4982118;28;20144;-45
2022/04/28 10:40:00;;;;;;;5.50;3.10;;;;;;;10.27;54.59;101813.47;4982090;28;20042;-43
2022/04/28 10:45:19;;;;;;;6.72;2.55;;;;;;;10.53;53.89;101815.91;5027754;28;21917;-45
2022/04/28 10:47:45;;;;;;;6.13;2.55;;;;;;;10.61;53.39;101823.00;5029147;28;20100;-45
2022/04/28 10:50:31;;;;;;;5.07;1.98;;;;;;;10.61;53.14;101812.63;5005165;28;20050;-46
2022/04/28 10:53:07;;;;;;;6.32;2.28;;;;;;;10.69;54.00;101811.13;5001290;28;20041;-42
2022/04/28 10:55:40;;;;;;;5.32;2.10;;;;;;;10.74;53.18;101816.41;5011753;28;20046;-45
2022/04/28 10:58:25;;;;;;;8.35;2.30;;;;;;;10.65;52.51;101811.88;4998325;28;20101;-42
2022/04/28 11:00:57;;;;;;;4.20;1.50;;;;;;;10.67;52.79;101807.59;5001809;28;20054;-44
2022/04/28 11:07:04;;;;;;;8.18;2.40;;;;;;;10.51;53.15;101807.19;5044873;28;22196;-43
2022/04/28 11:14:47;;;;;;;7.57;3.30;;;;;;;10.95;53.03;101807.41;5043688;28;20403;-42
2022/04/28 11:17:18;;;;;;;6.38;2.47;;;;;;;10.75;53.29;101815.56;5021093;28;21880;-46
2022/04/28 11:19:45;;;;;;;7.63;2.42;;;;;;;10.79;53.38;101813.09;5011171;28;20049;-42
2022/04/28 11:22:12;;;;;;;3.72;2.03;;;;;;;10.84;53.33;101818.38;5010327;28;20677;-46
2022/04/28 11:24:40;;;;;;;6.70;2.63;;;;;;;10.83;52.88;101818.34;5004612;28;20128;-43
2022/04/28 11:27:07;;;;;;;6.10;2.17;;;;;;;10.84;53.46;101820.13;5000962;28;20085;-44
2022/04/28 11:29:39;;;;;;;7.85;3.05;;;;;;;10.78;52.38;101826.03;5004761;28;20119;-45
2022/04/28 11:32:08;;;;;;;5.25;2.40;;;;;;;10.76;52.26;101818.22;5004242;28;20054;-41
2022/04/28 11:34:35;;;;;;;9.70;3.22;;;;;;;10.84;52.88;101820.13;5004940;28;20583;-43
2022/04/28 11:37:24;;;;;;;6.80;2.88;;;;;;;10.90;52.26;101821.13;5004977;28;20058;-44
2022/04/28 11:39:52;;;;;;;5.05;2.75;;;;;;;11.18;52.00;101815.75;5002290;28;20065;-44
2022/04/28 11:42:41;;;;;;;5.95;3.15;;;;;;;11.52;52.36;101806.09;5004556;28;20064;-42
2022/04/28 11:45:08;;;;;;;9.05;2.72;;;;;;;11.73;50.42;101803.94;5004428;28;20053;-39
2022/04/28 11:47:45;;;;;;;5.82;3.03;;;;;;;11.93;50.77;101810.41;5006323;28;20079;-49
2022/04/28 11:50:19;;;;;;;4.65;2.63;;;;;;;12.10;50.91;101804.72;5003217;28;20100;-43
2022/04/28 11:52:58;;;;;;;7.07;2.10;;;;;;;12.08;50.16;101812.47;5007827;28;20141;-43
2022/04/28 11:55:27;;;;;;;8.60;3.05;;;;;;;12.15;50.32;101810.88;5006280;28;20054;-44
2022/04/28 11:57:54;;;;;;;5.88;2.25;;;;;;;12.21;49.59;101823.09;5005428;28;20085;-42
2022/04/28 12:00:24;;;;;;;8.05;2.53;;;;;;;12.27;49.68;101828.41;5003217;28;20057;-44
2022/04/28 12:02:53;;;;;;;7.40;2.60;;;;;;;12.31;48.57;101819.84;5003632;28;20050;-41
2022/04/28 12:05:25;;;;;;;6.72;2.25;;;;;;;12.32;49.18;101826.78;5004516;28;20144;-41
2022/04/28 12:07:53;;;;;;;5.28;2.10;;;;;;;12.29;48.13;101821.50;5005803;28;20144;-48
2022/04/28 12:15:59;;;;;;;9.38;2.10;;;;;;;12.28;48.67;101819.78;4981693;28;20516;-46
2022/04/28 12:21:22;;;;;;;8.00;2.80;;;;;;;12.22;47.76;101830.03;4982683;28;20050;-41
2022/04/28 12:23:55;;;;;;;4.60;2.47;;;;;;;12.20;48.12;101824.81;4985944;28;20043;-44
2022/04/28 12:26:26;;;;;;;7.18;2.53;;;;;;;12.26;48.66;101816.25;4967254;28;20061;-43
2022/04/28 12:28:54;;;;;;;4.70;2.22;;;;;;;12.31;48.71;101809.44;4966920;28;20058;-49
2022/04/28 12:31:31;;;;;;;4.85;1.90;;;;;;;12.43;48.23;101807.91;4969070;28;20098;-40